Time;durP1;ratioP1;P1;durP2;ratioP2;P2;SDS_P1;SDS_P2;PMS_P1;PMS_P2;Temp;Humidity;BMP_temperature;BMP_pressure;BME280_temperature;BME280_humidity;BME280_pressure;Samples;Min_cycle;Max_cycle;Signal;HPM_P1;HPM_P2
2022/03/30 00:01:35;;;;;;;28.90;12.82;;;;;;;;;;4993656;28;20475;-65
2022/03/30 00:04:01;;;;;;;25.48;12.18;;;;;;;;;;4993922;28;20046;-65
2022/03/30 00:06:27;;;;;;;28.65;13.45;;;;;;;;;;4993755;28;20050;-65
2022/03/30 00:08:54;;;;;;;24.52;12.38;;;;;;;;;;4993223;28;20050;-65
2022/03/30 00:11:20;;;;;;;29.50;13.10;;;;;;;;;;4993758;28;20369;-65
2022/03/30 00:13:48;;;;;;;28.23;13.30;;;;;;;;;;4993892;28;20045;-65
2022/03/30 00:16:15;;;;;;;29.60;13.15;;;;;;;;;;4992939;28;20043;-65
2022/03/30 00:18:41;;;;;;;30.30;12.88;;;;;;;;;;4994008;28;20105;-65
2022/03/30 00:21:07;;;;;;;30.45;13.15;;;;;;;;;;4994090;28;20045;-65
2022/03/30 00:23:34;;;;;;;27.67;13.05;;;;;;;;;;4993115;28;20038;-65
2022/03/30 00:26:00;;;;;;;30.42;13.40;;;;;;;;;;4986479;28;20049;-65
2022/03/30 00:28:30;;;;;;;23.77;10.85;;;;;;;;;;4972943;28;20051;-65
2022/03/30 00:30:57;;;;;;;30.55;12.98;;;;;;;;;;4973427;28;20092;-65
2022/03/30 00:33:23;;;;;;;30.10;12.95;;;;;;;;;;4974157;28;20379;-65
2022/03/30 00:35:49;;;;;;;29.48;13.68;;;;;;;;;;4973746;28;20047;-65
2022/03/30 00:38:15;;;;;;;33.20;13.90;;;;;;;;;;4973455;28;20421;-65
2022/03/30 00:40:42;;;;;;;32.42;13.98;;;;;;;;;;4973641;28;20105;-65
2022/03/30 00:43:08;;;;;;;27.08;12.23;;;;;;;;;;4973509;28;20455;-65
2022/03/30 00:45:34;;;;;;;31.30;13.68;;;;;;;;;;4972176;28;20421;-65
2022/03/30 00:48:01;;;;;;;26.45;13.07;;;;;;;;;;4973761;28;20113;-65
2022/03/30 00:50:27;;;;;;;25.98;13.73;;;;;;;;;;4973823;28;20051;-65
2022/03/30 00:52:56;;;;;;;37.08;13.50;;;;;;;;;;4973098;28;20057;-65
2022/03/30 00:55:23;;;;;;;34.67;13.95;;;;;;;;;;4973650;28;20050;-65
2022/03/30 00:57:49;;;;;;;25.90;13.50;;;;;;;;;;4973641;28;20050;-65
2022/03/30 01:00:16;;;;;;;33.05;14.18;;;;;;;;;;4973004;28;20078;-65
2022/03/30 01:02:43;;;;;;;27.42;13.70;;;;;;;;;;4973702;28;20050;-65
2022/03/30 01:05:10;;;;;;;26.77;12.85;;;;;;;;;;4973692;28;20497;-65
2022/03/30 01:07:36;;;;;;;29.02;12.60;;;;;;;;;;4973161;28;20508;-65
2022/03/30 01:10:06;;;;;;;24.67;13.30;;;;;;;;;;4973792;28;20079;-65
2022/03/30 01:12:34;;;;;;;29.05;13.15;;;;;;;;;;4973630;28;20482;-65
2022/03/30 01:15:00;;;;;;;33.92;13.90;;;;;;;;;;4973032;28;20047;-65
2022/03/30 01:17:27;;;;;;;26.63;12.18;;;;;;;;;;4973371;28;20049;-65
2022/03/30 01:19:53;;;;;;;27.27;12.82;;;;;;;;;;4973568;28;20397;-65
2022/03/30 01:22:19;;;;;;;28.38;13.25;;;;;;;;;;4973202;28;20039;-65
2022/03/30 01:24:45;;;;;;;32.90;14.48;;;;;;;;;;4973272;28;20047;-65
2022/03/30 01:27:11;;;;;;;33.58;14.60;;;;;;;;;;4972237;28;20394;-65
2022/03/30 01:32:25;;;;;;;26.92;13.10;;;;;;;;;;4973718;28;20065;-65
2022/03/30 01:34:51;;;;;;;33.35;14.25;;;;;;;;;;4971972;28;20131;-65
2022/03/30 01:37:18;;;;;;;35.88;14.48;;;;;;;;;;4974974;28;20042;-65
2022/03/30 01:39:44;;;;;;;33.40;15.55;;;;;;;;;;4977026;28;20038;-66
2022/03/30 01:42:11;;;;;;;38.22;14.88;;;;;;;;;;4977130;28;20049;-66
2022/03/30 01:44:38;;;;;;;37.35;15.25;;;;;;;;;;4976232;28;20058;-65
2022/03/30 01:47:05;;;;;;;30.20;14.45;;;;;;;;;;4976899;28;20046;-65
2022/03/30 01:49:31;;;;;;;37.35;14.93;;;;;;;;;;4977051;28;20042;-65
2022/03/30 01:51:58;;;;;;;30.58;14.02;;;;;;;;;;4976512;28;20047;-65
2022/03/30 01:54:25;;;;;;;33.63;13.57;;;;;;;;;;4977265;28;20089;-65
2022/03/30 01:56:52;;;;;;;33.25;14.40;;;;;;;;;;4976862;28;20460;-65
2022/03/30 01:59:18;;;;;;;35.15;13.77;;;;;;;;;;4976577;28;20499;-65
2022/03/30 02:01:45;;;;;;;35.88;14.95;;;;;;;;;;4976898;28;20039;-65
2022/03/30 02:04:13;;;;;;;31.10;15.18;;;;;;;;;;4976896;28;20038;-65
2022/03/30 02:06:44;;;;;;;32.60;14.27;;;;;;;;;;4976483;28;20131;-65
2022/03/30 02:09:12;;;;;;;32.90;14.13;;;;;;;;;;4976834;28;20050;-65
2022/03/30 02:11:38;;;;;;;38.08;14.38;;;;;;;;;;4976796;28;20042;-65
2022/03/30 02:14:04;;;;;;;28.90;15.23;;;;;;;;;;4975679;28;20039;-65
2022/03/30 02:16:30;;;;;;;34.10;15.13;;;;;;;;;;4976610;28;20409;-65
2022/03/30 02:19:01;;;;;;;32.35;14.45;;;;;;;;;;4976667;28;20651;-65
2022/03/30 02:21:27;;;;;;;36.22;15.07;;;;;;;;;;4976249;28;20096;-65
2022/03/30 02:23:53;;;;;;;30.38;15.70;;;;;;;;;;4976654;28;20156;-65
2022/03/30 02:26:20;;;;;;;29.27;14.18;;;;;;;;;;4985832;28;20050;-65
2022/03/30 02:28:51;;;;;;;31.08;13.85;;;;;;;;;;4995662;28;20043;-66
2022/03/30 02:31:19;;;;;;;34.70;14.40;;;;;;;;;;4995967;28;20443;-66
2022/03/30 02:33:46;;;;;;;34.70;15.30;;;;;;;;;;4995944;28;20054;-65
2022/03/30 02:36:12;;;;;;;33.45;15.23;;;;;;;;;;4995074;28;20046;-65
2022/03/30 02:38:38;;;;;;;32.80;14.35;;;;;;;;;;4995866;28;20121;-65
2022/03/30 02:41:10;;;;;;;32.42;14.63;;;;;;;;;;4995676;28;20043;-65
2022/03/30 02:43:37;;;;;;;35.70;14.43;;;;;;;;;;4994583;28;20061;-65
2022/03/30 02:46:03;;;;;;;31.05;13.98;;;;;;;;;;4995229;28;20050;-65
2022/03/30 02:48:32;;;;;;;31.58;13.82;;;;;;;;;;4994423;28;20061;-65
2022/03/30 02:51:04;;;;;;;34.80;14.93;;;;;;;;;;4995067;28;20472;-65
2022/03/30 02:53:30;;;;;;;32.78;15.07;;;;;;;;;;4995613;28;20116;-65
2022/03/30 02:55:56;;;;;;;31.70;14.63;;;;;;;;;;4995395;28;20142;-65
2022/03/30 02:58:23;;;;;;;32.28;14.80;;;;;;;;;;4994591;28;20082;-65
2022/03/30 03:00:49;;;;;;;32.50;14.98;;;;;;;;;;4995374;28;20041;-65
2022/03/30 03:03:17;;;;;;;30.00;13.68;;;;;;;;;;4995005;28;20050;-65
2022/03/30 03:05:43;;;;;;;31.90;13.80;;;;;;;;;;4994488;28;20038;-65
2022/03/30 03:08:12;;;;;;;31.23;14.32;;;;;;;;;;4995362;28;20074;-65
2022/03/30 03:10:43;;;;;;;31.45;13.82;;;;;;;;;;4995286;28;20137;-65
2022/03/30 03:13:11;;;;;;;36.33;15.02;;;;;;;;;;4994551;28;20074;-66
2022/03/30 03:15:37;;;;;;;36.72;14.90;;;;;;;;;;4994541;28;20042;-65
2022/03/30 03:18:05;;;;;;;33.03;14.32;;;;;;;;;;4995017;28;20046;-65
2022/03/30 03:20:31;;;;;;;35.25;15.32;;;;;;;;;;4994371;28;20074;-65
2022/03/30 03:23:02;;;;;;;29.73;13.52;;;;;;;;;;4994715;28;20042;-65
2022/03/30 03:25:29;;;;;;;33.80;15.00;;;;;;;;;;4994777;28;20049;-65
2022/03/30 03:27:56;;;;;;;33.50;14.30;;;;;;;;;;4994226;28;20054;-65
2022/03/30 03:30:22;;;;;;;33.65;14.07;;;;;;;;;;4994627;28;20050;-65
2022/03/30 03:32:49;;;;;;;33.08;15.40;;;;;;;;;;4993197;28;20160;-65
2022/03/30 03:35:15;;;;;;;32.45;14.80;;;;;;;;;;4994221;28;20261;-65
2022/03/30 03:37:41;;;;;;;31.73;13.90;;;;;;;;;;4994408;28;20097;-65
2022/03/30 03:40:08;;;;;;;31.83;14.23;;;;;;;;;;4994481;28;20049;-65
2022/03/30 03:42:35;;;;;;;30.00;14.85;;;;;;;;;;4993952;28;20035;-65
2022/03/30 03:45:01;;;;;;;36.28;14.02;;;;;;;;;;4994275;28;20054;-65
2022/03/30 03:47:27;;;;;;;36.83;14.63;;;;;;;;;;4994269;28;20135;-65
2022/03/30 03:49:54;;;;;;;33.25;13.73;;;;;;;;;;4993457;28;20464;-65
2022/03/30 03:52:20;;;;;;;31.88;13.80;;;;;;;;;;4992684;28;20046;-65
2022/03/30 03:54:46;;;;;;;31.40;14.25;;;;;;;;;;4994041;28;20497;-65
2022/03/30 03:57:12;;;;;;;34.33;14.95;;;;;;;;;;4993554;28;20048;-65
2022/03/30 03:59:38;;;;;;;33.15;13.82;;;;;;;;;;4993904;28;20034;-65
2022/03/30 04:02:07;;;;;;;29.38;14.15;;;;;;;;;;4993702;28;20431;-65
2022/03/30 04:04:33;;;;;;;38.88;14.30;;;;;;;;;;4993589;28;20512;-65
2022/03/30 04:06:59;;;;;;;27.90;13.52;;;;;;;;;;4993550;28;20046;-65
2022/03/30 04:09:26;;;;;;;29.92;15.18;;;;;;;;;;4993956;28;20193;-65
2022/03/30 04:11:52;;;;;;;33.63;15.75;;;;;;;;;;4993208;28;20046;-65
2022/03/30 04:14:20;;;;;;;28.70;14.88;;;;;;;;;;4993681;28;20073;-65
2022/03/30 04:16:46;;;;;;;44.08;14.80;;;;;;;;;;4993650;28;20427;-65
2022/03/30 04:19:13;;;;;;;30.40;14.05;;;;;;;;;;4993120;28;20069;-65
2022/03/30 04:21:39;;;;;;;30.20;14.13;;;;;;;;;;4993816;28;20097;-65
2022/03/30 04:24:06;;;;;;;31.17;13.35;;;;;;;;;;4993695;28;20133;-65
2022/03/30 04:26:32;;;;;;;31.95;14.90;;;;;;;;;;4981118;28;20042;-65
2022/03/30 04:28:58;;;;;;;27.70;13.38;;;;;;;;;;4974044;28;20057;-65
2022/03/30 04:31:25;;;;;;;33.88;14.77;;;;;;;;;;4974228;28;20050;-65
2022/03/30 04:33:53;;;;;;;42.08;14.10;;;;;;;;;;4973238;28;20109;-65
2022/03/30 04:36:20;;;;;;;33.65;14.30;;;;;;;;;;4973854;28;20566;-66
2022/03/30 04:38:46;;;;;;;31.05;13.32;;;;;;;;;;4974008;28;20117;-66
2022/03/30 04:41:12;;;;;;;26.75;13.15;;;;;;;;;;4973421;28;20234;-66
2022/03/30 04:43:39;;;;;;;35.08;13.43;;;;;;;;;;4973383;28;20057;-66
2022/03/30 04:46:05;;;;;;;33.15;14.48;;;;;;;;;;4973718;28;20449;-66
2022/03/30 04:48:32;;;;;;;33.42;14.32;;;;;;;;;;4973250;28;20050;-65
2022/03/30 04:50:59;;;;;;;37.13;13.80;;;;;;;;;;4972526;28;20057;-65
2022/03/30 04:53:25;;;;;;;30.75;14.50;;;;;;;;;;4973885;28;20050;-65
2022/03/30 04:55:51;;;;;;;37.15;13.70;;;;;;;;;;4973050;28;20126;-65
2022/03/30 04:58:17;;;;;;;28.40;13.25;;;;;;;;;;4972258;28;20046;-65
2022/03/30 05:00:43;;;;;;;32.60;13.88;;;;;;;;;;4973491;28;20094;-65
2022/03/30 05:03:09;;;;;;;28.75;12.15;;;;;;;;;;4973014;28;20038;-65
2022/03/30 05:05:35;;;;;;;26.10;12.48;;;;;;;;;;4973450;28;20065;-65
2022/03/30 05:08:01;;;;;;;31.27;12.45;;;;;;;;;;4973603;28;20046;-65
2022/03/30 05:10:28;;;;;;;29.02;13.13;;;;;;;;;;4972512;28;20050;-65
2022/03/30 05:12:55;;;;;;;30.15;13.00;;;;;;;;;;4973349;28;20047;-65
2022/03/30 05:15:23;;;;;;;29.58;12.85;;;;;;;;;;4973164;28;20042;-65
2022/03/30 05:17:49;;;;;;;24.42;11.77;;;;;;;;;;4973149;28;20426;-65
2022/03/30 05:20:16;;;;;;;30.55;11.80;;;;;;;;;;4973515;28;20038;-65
2022/03/30 05:22:43;;;;;;;26.08;11.80;;;;;;;;;;4973382;28;20035;-65
2022/03/30 05:25:09;;;;;;;28.17;11.02;;;;;;;;;;4973407;28;20483;-65
2022/03/30 05:27:38;;;;;;;29.02;11.40;;;;;;;;;;4992710;28;20042;-65
2022/03/30 05:30:04;;;;;;;16.80;8.55;;;;;;;;;;4991643;28;20559;-65
2022/03/30 05:32:30;;;;;;;15.63;8.13;;;;;;;;;;4992546;28;20681;-65
2022/03/30 05:34:56;;;;;;;11.05;5.90;;;;;;;;;;4992614;28;20046;-65
2022/03/30 05:37:24;;;;;;;5.35;3.58;;;;;;;;;;4992675;28;20077;-65
2022/03/30 05:39:50;;;;;;;5.10;2.88;;;;;;;;;;4992900;28;20038;-65
2022/03/30 05:42:16;;;;;;;3.72;2.50;;;;;;;;;;4991700;28;20117;-65
2022/03/30 05:44:42;;;;;;;2.97;1.60;;;;;;;;;;4992461;28;20066;-65
2022/03/30 05:47:09;;;;;;;2.63;1.27;;;;;;;;;;4992776;28;20487;-65
2022/03/30 05:49:35;;;;;;;4.10;1.20;;;;;;;;;;4992190;28;20050;-65
2022/03/30 05:52:01;;;;;;;3.25;1.00;;;;;;;;;;5002458;28;20515;-65
2022/03/30 05:54:27;;;;;;;3.03;0.90;;;;;;;;;;4999127;28;21103;-65
2022/03/30 05:57:02;;;;;;;1.02;0.82;;;;;;;;;;5009114;28;20473;-66
2022/03/30 05:59:29;;;;;;;1.30;1.00;;;;;;;;;;4992818;28;20085;-65
2022/03/30 06:01:55;;;;;;;0.80;0.70;;;;;;;;;;4992264;28;20539;-65
2022/03/30 06:04:21;;;;;;;1.75;1.00;;;;;;;;;;4973588;28;20046;-65
2022/03/30 06:06:50;;;;;;;4.35;1.50;;;;;;;;;;4974286;28;20070;-66
2022/03/30 06:09:18;;;;;;;2.47;1.35;;;;;;;;;;4972943;28;20051;-66
2022/03/30 06:11:44;;;;;;;3.08;1.60;;;;;;;;;;4972046;28;20053;-65
2022/03/30 06:14:10;;;;;;;3.67;1.55;;;;;;;;;;4973005;28;20053;-65
2022/03/30 06:16:36;;;;;;;3.85;1.73;;;;;;;;;;4991868;28;20038;-65
2022/03/30 06:19:03;;;;;;;2.80;1.60;;;;;;;;;;4984806;28;20058;-65
2022/03/30 06:21:30;;;;;;;2.65;2.00;;;;;;;;;;4972810;28;20047;-66
2022/03/30 06:23:57;;;;;;;4.47;1.98;;;;;;;;;;4975840;28;20039;-65
2022/03/30 06:26:23;;;;;;;2.85;2.00;;;;;;;;;;4980779;28;20046;-65
2022/03/30 06:28:49;;;;;;;3.05;1.90;;;;;;;;;;4977602;28;20030;-66
2022/03/30 06:31:19;;;;;;;8.02;2.03;;;;;;;;;;4983361;28;20507;-66
2022/03/30 06:33:45;;;;;;;2.92;2.28;;;;;;;;;;4985788;28;20046;-66
2022/03/30 06:36:12;;;;;;;4.80;1.90;;;;;;;;;;4988067;28;20078;-66
2022/03/30 06:38:38;;;;;;;2.13;1.50;;;;;;;;;;4988049;28;20149;-66
2022/03/30 06:41:04;;;;;;;2.65;2.10;;;;;;;;;;4989924;28;20038;-67
2022/03/30 06:43:31;;;;;;;4.38;2.50;;;;;;;;;;4984338;28;20105;-66
2022/03/30 06:45:57;;;;;;;3.13;1.80;;;;;;;;;;4986831;28;20464;-66
2022/03/30 06:48:23;;;;;;;2.58;1.65;;;;;;;;;;4987983;28;20081;-65
2022/03/30 06:50:54;;;;;;;3.83;1.70;;;;;;;;;;4963793;28;20065;-65
2022/03/30 06:53:20;;;;;;;4.40;1.88;;;;;;;;;;4986221;28;20046;-66
2022/03/30 06:55:46;;;;;;;1.60;1.50;;;;;;;;;;4989570;28;20121;-66
2022/03/30 06:58:12;;;;;;;2.90;1.85;;;;;;;;;;4984797;28;20045;-66
2022/03/30 07:00:38;;;;;;;2.22;1.45;;;;;;;;;;4985653;28;20108;-67
2022/03/30 07:03:04;;;;;;;1.90;1.67;;;;;;;;;;4990511;28;20051;-66
2022/03/30 07:05:33;;;;;;;2.63;1.88;;;;;;;;;;4982536;28;20410;-66
2022/03/30 07:10:43;;;;;;;2.97;1.50;;;;;;;;;;4979725;28;20129;-67
2022/03/30 07:13:09;;;;;;;1.88;1.35;;;;;;;;;;4988444;28;20434;-66
2022/03/30 07:15:35;;;;;;;2.35;1.80;;;;;;;;;;5000453;28;20038;-64
2022/03/30 07:18:02;;;;;;;3.20;2.20;;;;;;;;;;4979494;28;20054;-66
2022/03/30 07:20:30;;;;;;;4.22;2.40;;;;;;;;;;4980849;28;20038;-66
2022/03/30 07:22:58;;;;;;;4.15;2.50;;;;;;;;;;4987966;28;20722;-65
2022/03/30 07:25:24;;;;;;;2.97;2.28;;;;;;;;;;4986275;28;20094;-65
2022/03/30 07:27:51;;;;;;;3.15;1.92;;;;;;;;;;4980318;28;20124;-66
2022/03/30 07:30:18;;;;;;;2.13;1.90;;;;;;;;;;4999052;28;20363;-65
2022/03/30 07:32:45;;;;;;;2.22;1.80;;;;;;;;;;4985886;28;20350;-65
2022/03/30 07:35:14;;;;;;;2.28;1.58;;;;;;;;;;4974315;28;20070;-65
2022/03/30 07:37:40;;;;;;;1.90;1.58;;;;;;;;;;4987431;28;20038;-65
2022/03/30 07:40:07;;;;;;;5.72;3.00;;;;;;;;;;4991649;28;20126;-67
2022/03/30 07:42:33;;;;;;;2.72;1.58;;;;;;;;;;4975700;28;20866;-65
2022/03/30 07:45:00;;;;;;;5.03;1.98;;;;;;;;;;4981185;28;20444;-67
2022/03/30 07:47:26;;;;;;;1.88;1.60;;;;;;;;;;4989687;28;20038;-65
2022/03/30 07:49:53;;;;;;;7.10;2.65;;;;;;;;;;4986946;28;20052;-65
2022/03/30 07:52:22;;;;;;;3.67;2.03;;;;;;;;;;4984460;28;20600;-64
2022/03/30 07:54:49;;;;;;;3.30;1.70;;;;;;;;;;4980974;28;20045;-65
2022/03/30 07:57:15;;;;;;;2.33;1.80;;;;;;;;;;4980433;28;20034;-67
2022/03/30 07:59:45;;;;;;;4.93;1.77;;;;;;;;;;4982744;28;20049;-65
2022/03/30 08:02:13;;;;;;;3.13;1.65;;;;;;;;;;4973445;28;20370;-63
2022/03/30 08:04:42;;;;;;;4.88;2.20;;;;;;;;;;4985231;28;20050;-64
2022/03/30 08:07:08;;;;;;;3.33;2.17;;;;;;;;;;4978488;28;20039;-64
2022/03/30 08:09:34;;;;;;;6.22;2.20;;;;;;;;;;4994338;28;20042;-65
2022/03/30 08:12:00;;;;;;;4.68;2.25;;;;;;;;;;4980124;28;20042;-64
2022/03/30 08:14:26;;;;;;;9.57;2.58;;;;;;;;;;4977992;28;20409;-64
2022/03/30 08:16:52;;;;;;;3.40;2.20;;;;;;;;;;4977010;28;20051;-65
2022/03/30 08:19:19;;;;;;;3.35;1.95;;;;;;;;;;4974818;28;20566;-64
2022/03/30 08:24:29;;;;;;;4.32;2.47;;;;;;;;;;4980836;28;20121;-64
2022/03/30 08:26:55;;;;;;;4.47;3.33;;;;;;;;;;4978044;28;20100;-64
2022/03/30 08:29:22;;;;;;;8.30;3.90;;;;;;;;;;4974980;28;20452;-64
2022/03/30 08:31:48;;;;;;;3.80;3.17;;;;;;;;;;4973854;28;20035;-64
2022/03/30 08:34:15;;;;;;;6.60;3.95;;;;;;;;;;4983253;28;20070;-64
2022/03/30 08:36:42;;;;;;;8.95;4.43;;;;;;;;;;4984302;28;20051;-65
2022/03/30 08:39:11;;;;;;;7.55;4.38;;;;;;;;;;4978968;28;20043;-65
2022/03/30 08:41:40;;;;;;;6.82;4.93;;;;;;;;;;4983030;28;20041;-64
2022/03/30 08:44:06;;;;;;;9.38;4.43;;;;;;;;;;4984367;28;20874;-64
2022/03/30 08:46:32;;;;;;;6.43;4.03;;;;;;;;;;4979906;28;20174;-64
2022/03/30 08:48:58;;;;;;;8.50;3.47;;;;;;;;;;4989172;28;20042;-64
2022/03/30 08:51:25;;;;;;;5.70;3.55;;;;;;;;;;5005767;28;20078;-64
2022/03/30 08:53:51;;;;;;;7.03;3.53;;;;;;;;;;4997869;28;20101;-64
2022/03/30 08:56:18;;;;;;;11.75;3.80;;;;;;;;;;4988428;28;20042;-64
2022/03/30 08:58:44;;;;;;;6.55;3.55;;;;;;;;;;4977118;28;20597;-64
2022/03/30 09:01:14;;;;;;;7.70;3.92;;;;;;;;;;4981961;28;20038;-63
2022/03/30 09:03:59;;;;;;;6.40;3.30;;;;;;;;;;4974048;28;20474;-63
2022/03/30 09:06:38;;;;;;;6.15;2.80;;;;;;;;;;4982635;28;20136;-64
2022/03/30 09:09:04;;;;;;;6.80;3.10;;;;;;;;;;4986418;28;20077;-64
2022/03/30 09:11:37;;;;;;;3.83;2.38;;;;;;;;;;4978656;28;20050;-64
2022/03/30 09:14:04;;;;;;;9.68;2.40;;;;;;;;;;4995624;28;20050;-63
2022/03/30 09:16:39;;;;;;;23.48;3.15;;;;;;;;;;4976116;28;20050;-63
2022/03/30 09:19:06;;;;;;;12.70;2.90;;;;;;;;;;4977592;28;20061;-63
2022/03/30 09:21:49;;;;;;;5.68;2.00;;;;;;;;;;4978444;28;20049;-64
2022/03/30 09:24:17;;;;;;;5.15;1.98;;;;;;;;;;4987142;28;20124;-65
2022/03/30 09:26:43;;;;;;;6.13;2.50;;;;;;;;;;4984154;28;20074;-64
2022/03/30 09:29:10;;;;;;;6.93;3.33;;;;;;;;;;4986290;28;20057;-63
2022/03/30 09:31:38;;;;;;;6.72;3.42;;;;;;;;;;5000490;28;20046;-63
2022/03/30 09:34:05;;;;;;;9.18;4.38;;;;;;;;;;4980165;28;20065;-66
2022/03/30 09:36:33;;;;;;;4.82;4.10;;;;;;;;;;4982989;28;20046;-65
2022/03/30 09:38:59;;;;;;;4.85;3.90;;;;;;;;;;4983071;28;20121;-65
2022/03/30 09:41:25;;;;;;;6.07;4.00;;;;;;;;;;4982986;28;20049;-65
2022/03/30 09:44:04;;;;;;;7.30;3.95;;;;;;;;;;4982619;28;20223;-64
2022/03/30 09:46:30;;;;;;;5.43;3.67;;;;;;;;;;4975783;28;20382;-64
2022/03/30 09:48:56;;;;;;;6.63;3.33;;;;;;;;;;4989826;28;20058;-65
2022/03/30 09:51:28;;;;;;;5.35;1.90;;;;;;;;;;4979328;28;20121;-62
2022/03/30 09:53:54;;;;;;;6.80;2.03;;;;;;;;;;4978627;28;20050;-61
2022/03/30 09:56:22;;;;;;;6.35;1.60;;;;;;;;;;4983444;28;20480;-60
2022/03/30 09:58:48;;;;;;;4.30;1.52;;;;;;;;;;4986586;28;20049;-63
2022/03/30 10:01:29;;;;;;;6.60;1.33;;;;;;;;;;4984130;28;20441;-67
2022/03/30 10:03:59;;;;;;;6.05;1.40;;;;;;;;;;4966955;28;20492;-66
2022/03/30 10:06:32;;;;;;;4.53;1.20;;;;;;;;;;4983263;28;20038;-67
2022/03/30 10:08:58;;;;;;;3.85;0.98;;;;;;;;;;4983291;28;20089;-67
2022/03/30 10:11:27;;;;;;;2.38;1.35;;;;;;;;;;4988058;28;20185;-63
2022/03/30 10:13:58;;;;;;;3.13;1.60;;;;;;;;;;4991271;28;20137;-64
2022/03/30 10:16:24;;;;;;;2.40;1.45;;;;;;;;;;4987627;28;20489;-64
2022/03/30 10:18:51;;;;;;;4.90;1.20;;;;;;;;;;4985681;28;20039;-64
2022/03/30 10:21:22;;;;;;;3.85;1.30;;;;;;;;;;4984669;28;20118;-62
2022/03/30 10:24:06;;;;;;;3.40;1.30;;;;;;;;;;4989819;28;20064;-62
2022/03/30 10:26:51;;;;;;;4.05;1.10;;;;;;;;;;4996228;28;20077;-63
2022/03/30 10:29:18;;;;;;;3.67;1.45;;;;;;;;;;4992393;28;20382;-65
2022/03/30 10:32:04;;;;;;;4.10;1.90;;;;;;;;;;4990279;28;20089;-62
2022/03/30 10:34:30;;;;;;;2.60;1.42;;;;;;;;;;4988511;28;20057;-64
2022/03/30 10:37:15;;;;;;;2.08;1.50;;;;;;;;;;4983580;28;20257;-63
2022/03/30 10:40:00;;;;;;;3.15;1.30;;;;;;;;;;4984549;28;20389;-63
2022/03/30 10:42:26;;;;;;;2.10;1.40;;;;;;;;;;4991549;28;20050;-64
2022/03/30 10:44:57;;;;;;;3.08;1.40;;;;;;;;;;4990028;28;20097;-63
2022/03/30 10:47:27;;;;;;;4.45;1.52;;;;;;;;;;4993664;28;20054;-63
2022/03/30 10:49:54;;;;;;;3.70;1.60;;;;;;;;;;4993740;28;20053;-62
2022/03/30 10:52:29;;;;;;;5.30;1.50;;;;;;;;;;4988663;28;20050;-63
2022/03/30 10:55:13;;;;;;;3.75;1.60;;;;;;;;;;4988326;28;20060;-62
2022/03/30 10:58:01;;;;;;;3.08;1.40;;;;;;;;;;4986556;28;20109;-63
2022/03/30 11:00:27;;;;;;;2.42;1.50;;;;;;;;;;4983335;28;20126;-62
2022/03/30 11:03:05;;;;;;;3.00;1.58;;;;;;;;;;4978311;28;20058;-62
2022/03/30 11:05:31;;;;;;;4.90;1.60;;;;;;;;;;4979993;28;20090;-62
2022/03/30 11:07:57;;;;;;;6.50;1.30;;;;;;;;;;4986277;28;20118;-62
2022/03/30 11:10:25;;;;;;;4.97;1.10;;;;;;;;;;4984361;28;20053;-63
2022/03/30 11:12:57;;;;;;;5.40;1.40;;;;;;;;;;4976492;28;20511;-61
2022/03/30 11:15:23;;;;;;;5.35;1.67;;;;;;;;;;4983380;28;20453;-63
2022/03/30 11:17:50;;;;;;;3.13;1.50;;;;;;;;;;4983649;28;20082;-63
2022/03/30 11:20:16;;;;;;;3.72;1.50;;;;;;;;;;4983092;28;20363;-63
2022/03/30 11:22:45;;;;;;;5.75;1.50;;;;;;;;;;4982864;28;20060;-64
2022/03/30 11:25:19;;;;;;;5.97;1.40;;;;;;;;;;4978739;28;20042;-63
2022/03/30 11:27:57;;;;;;;4.13;1.38;;;;;;;;;;4981210;28;20038;-66
2022/03/30 11:30:24;;;;;;;5.72;1.52;;;;;;;;;;4989945;28;20065;-65
2022/03/30 11:32:50;;;;;;;3.65;1.05;;;;;;;;;;4983430;28;20039;-64
2022/03/30 11:35:17;;;;;;;2.70;1.17;;;;;;;;;;4983192;28;20430;-64
2022/03/30 11:37:47;;;;;;;5.00;1.20;;;;;;;;;;4991409;28;20061;-68
2022/03/30 11:40:18;;;;;;;1.95;1.30;;;;;;;;;;4990486;28;20169;-70
2022/03/30 11:42:46;;;;;;;6.07;1.52;;;;;;;;;;4982398;28;20053;-65
2022/03/30 11:45:12;;;;;;;2.80;1.30;;;;;;;;;;4980472;28;20408;-64
2022/03/30 11:47:45;;;;;;;2.58;1.10;;;;;;;;;;4972873;28;20035;-65
2022/03/30 11:50:13;;;;;;;2.05;1.20;;;;;;;;;;4981533;28;20050;-66
2022/03/30 11:52:39;;;;;;;3.30;1.40;;;;;;;;;;4988973;28;20045;-67
2022/03/30 11:55:07;;;;;;;2.55;1.70;;;;;;;;;;4981434;28;20045;-66
2022/03/30 11:57:37;;;;;;;5.90;1.67;;;;;;;;;;4978178;28;20038;-65
2022/03/30 12:00:09;;;;;;;3.70;1.20;;;;;;;;;;4979870;28;20049;-64
2022/03/30 12:02:35;;;;;;;4.18;1.40;;;;;;;;;;4981190;28;20546;-65
2022/03/30 12:05:01;;;;;;;7.75;1.50;;;;;;;;;;4981589;28;20049;-67
2022/03/30 12:07:27;;;;;;;4.88;1.25;;;;;;;;;;4976703;28;20035;-67
2022/03/30 12:09:54;;;;;;;4.13;1.20;;;;;;;;;;4979788;28;20120;-66
2022/03/30 12:12:35;;;;;;;2.28;1.30;;;;;;;;;;4983264;28;20054;-64
2022/03/30 12:15:03;;;;;;;4.65;1.40;;;;;;;;;;4985969;28;20401;-66
2022/03/30 12:17:29;;;;;;;3.20;1.40;;;;;;;;;;4973920;28;20053;-65
2022/03/30 12:19:55;;;;;;;5.03;1.33;;;;;;;;;;4979539;28;20393;-65
2022/03/30 12:22:22;;;;;;;3.30;1.38;;;;;;;;;;4986243;28;20045;-65
2022/03/30 12:24:49;;;;;;;4.18;1.35;;;;;;;;;;4978762;28;20066;-65
2022/03/30 12:27:15;;;;;;;2.75;1.40;;;;;;;;;;4978796;28;20042;-65
2022/03/30 12:29:42;;;;;;;4.10;1.38;;;;;;;;;;4979646;28;20038;-64
2022/03/30 12:32:10;;;;;;;4.97;1.30;;;;;;;;;;4974620;28;20038;-65
2022/03/30 12:34:36;;;;;;;3.30;1.40;;;;;;;;;;4977297;28;20089;-66
2022/03/30 12:37:05;;;;;;;2.88;1.30;;;;;;;;;;4982420;28;20386;-68
2022/03/30 12:39:39;;;;;;;6.68;1.10;;;;;;;;;;4984929;28;20058;-68
2022/03/30 12:42:08;;;;;;;4.43;1.40;;;;;;;;;;4977663;28;20050;-67
2022/03/30 12:44:36;;;;;;;5.00;1.48;;;;;;;;;;4981446;28;20058;-66
2022/03/30 12:47:03;;;;;;;3.78;1.40;;;;;;;;;;4981124;28;20389;-65
2022/03/30 12:49:33;;;;;;;3.08;1.30;;;;;;;;;;4983624;28;20552;-64
2022/03/30 12:52:11;;;;;;;3.10;1.25;;;;;;;;;;4980316;28;20034;-65
2022/03/30 12:54:38;;;;;;;3.83;1.33;;;;;;;;;;4982268;28;20378;-63
2022/03/30 12:57:04;;;;;;;3.05;1.13;;;;;;;;;;4979350;28;20046;-67
2022/03/30 12:59:30;;;;;;;4.05;1.48;;;;;;;;;;4981593;28;20813;-66
2022/03/30 13:01:58;;;;;;;4.60;1.25;;;;;;;;;;4984077;28;20039;-63
2022/03/30 13:04:28;;;;;;;2.72;1.10;;;;;;;;;;4983453;28;20039;-64
2022/03/30 13:07:25;;;;;;;2.22;1.30;;;;;;;;;;4984190;28;20053;-64
2022/03/30 13:10:01;;;;;;;3.67;1.40;;;;;;;;;;4972970;28;20058;-64
2022/03/30 13:12:40;;;;;;;5.22;1.58;;;;;;;;;;4969683;28;20055;-64
2022/03/30 13:15:08;;;;;;;1.95;1.20;;;;;;;;;;4972508;28;20042;-64
2022/03/30 13:17:34;;;;;;;4.85;1.20;;;;;;;;;;4971349;28;20043;-64
2022/03/30 13:20:01;;;;;;;2.72;1.20;;;;;;;;;;4977003;28;20126;-64
2022/03/30 13:22:28;;;;;;;3.90;1.20;;;;;;;;;;4972195;28;20465;-65
2022/03/30 13:24:54;;;;;;;1.85;0.90;;;;;;;;;;4980373;28;20114;-65
2022/03/30 13:27:21;;;;;;;3.85;1.50;;;;;;;;;;4974799;28;20043;-64
2022/03/30 13:29:48;;;;;;;2.38;1.73;;;;;;;;;;4972266;28;20047;-64
2022/03/30 13:32:14;;;;;;;2.75;1.10;;;;;;;;;;4980688;28;20038;-64
2022/03/30 13:34:41;;;;;;;2.20;1.30;;;;;;;;;;4992324;28;20109;-65
2022/03/30 13:37:06;;;;;;;5.68;1.33;;;;;;;;;;4974396;28;20043;-64
2022/03/30 13:39:33;;;;;;;4.07;1.20;;;;;;;;;;4976238;28;20039;-64
2022/03/30 13:42:00;;;;;;;3.40;0.90;;;;;;;;;;4986686;28;20109;-65
2022/03/30 13:44:26;;;;;;;3.85;1.25;;;;;;;;;;4980977;28;20141;-64
2022/03/30 13:46:52;;;;;;;4.35;1.08;;;;;;;;;;4979355;28;20054;-64
2022/03/30 13:49:41;;;;;;;3.15;1.00;;;;;;;;;;4975241;28;20082;-64
2022/03/30 13:52:07;;;;;;;4.63;1.05;;;;;;;;;;4987137;28;20114;-64
2022/03/30 13:54:33;;;;;;;6.47;1.67;;;;;;;;;;4975183;28;20189;-64
2022/03/30 13:56:59;;;;;;;4.55;1.20;;;;;;;;;;4974782;28;20050;-65
2022/03/30 13:59:26;;;;;;;2.72;0.98;;;;;;;;;;4977979;28;20043;-65
2022/03/30 14:01:52;;;;;;;6.43;1.27;;;;;;;;;;4991399;28;20034;-64
2022/03/30 14:04:18;;;;;;;3.42;1.10;;;;;;;;;;4990060;28;20044;-65
2022/03/30 14:06:45;;;;;;;5.55;1.20;;;;;;;;;;4974813;28;20046;-66
2022/03/30 14:09:11;;;;;;;3.53;1.10;;;;;;;;;;4975376;28;20125;-65
2022/03/30 14:11:37;;;;;;;3.85;1.08;;;;;;;;;;4974843;28;20178;-65
2022/03/30 14:14:05;;;;;;;1.67;1.15;;;;;;;;;;4982169;28;20030;-64
2022/03/30 14:16:32;;;;;;;3.40;0.98;;;;;;;;;;4976994;28;20050;-64
2022/03/30 14:18:58;;;;;;;3.72;1.50;;;;;;;;;;4974300;28;20066;-64
2022/03/30 14:21:24;;;;;;;6.40;1.42;;;;;;;;;;4987098;28;20042;-64
2022/03/30 14:23:50;;;;;;;4.47;0.88;;;;;;;;;;4983605;28;20046;-64
2022/03/30 14:26:16;;;;;;;3.78;1.02;;;;;;;;;;4978737;28;20057;-65
2022/03/30 14:28:43;;;;;;;2.30;1.13;;;;;;;;;;4974690;28;20047;-65
2022/03/30 14:31:09;;;;;;;2.47;0.90;;;;;;;;;;4980752;28;20049;-65
2022/03/30 14:33:35;;;;;;;3.97;1.33;;;;;;;;;;4974204;28;20461;-65
2022/03/30 14:36:01;;;;;;;7.70;1.38;;;;;;;;;;4980359;28;20126;-65
2022/03/30 14:38:27;;;;;;;1.95;0.80;;;;;;;;;;4979100;28;20038;-65
2022/03/30 14:40:53;;;;;;;3.95;1.20;;;;;;;;;;4984154;28;20035;-65
2022/03/30 14:43:21;;;;;;;4.00;0.90;;;;;;;;;;4985688;28;20055;-65
2022/03/30 14:45:47;;;;;;;5.32;1.05;;;;;;;;;;4980046;28;20074;-64